createdAt,value
2022-10-01T00:01:24.980Z,14.50
2022-10-01T00:03:53.178Z,13.70
2022-10-01T00:06:22.292Z,12.93
2022-10-01T00:08:51.023Z,12.50
2022-10-01T00:11:22.323Z,12.67
2022-10-01T00:13:50.848Z,13.20
2022-10-01T00:16:21.546Z,12.67
2022-10-01T00:18:49.858Z,13.03
2022-10-01T00:21:22.716Z,13.87
2022-10-01T00:24:03.183Z,13.53
2022-10-01T00:26:33.108Z,13.33
2022-10-01T00:29:03.434Z,13.60
2022-10-01T00:31:31.439Z,14.17
2022-10-01T00:34:01.018Z,14.23
2022-10-01T00:36:28.501Z,14.97
2022-10-01T00:39:00.495Z,13.87
2022-10-01T00:41:30.416Z,12.97
2022-10-01T00:44:01.345Z,14.23
2022-10-01T00:46:42.915Z,14.13
2022-10-01T00:49:24.304Z,13.83
2022-10-01T00:52:00.095Z,13.37
2022-10-01T00:54:44.877Z,13.70
2022-10-01T00:57:16.781Z,13.30
2022-10-01T00:59:45.792Z,13.50
2022-10-01T01:02:13.340Z,13.87
2022-10-01T01:04:41.537Z,13.57
2022-10-01T01:07:09.785Z,12.73
2022-10-01T01:09:41.907Z,13.60
2022-10-01T01:12:18.449Z,13.37
2022-10-01T01:15:14.263Z,14.10
2022-10-01T01:17:50.808Z,14.50
2022-10-01T01:20:29.746Z,14.90
2022-10-01T01:23:16.068Z,15.17
2022-10-01T01:25:47.934Z,15.20
2022-10-01T01:28:32.130Z,15.30
2022-10-01T01:31:08.280Z,15.50
2022-10-01T01:33:38.993Z,14.33
2022-10-01T01:36:17.182Z,13.20
2022-10-01T01:38:54.875Z,14.27
2022-10-01T01:41:27.369Z,13.90
2022-10-01T01:43:57.499Z,13.60
2022-10-01T01:46:31.650Z,13.40
2022-10-01T01:49:03.851Z,13.23
2022-10-01T01:51:41.178Z,13.30
2022-10-01T01:54:09.621Z,13.10
2022-10-01T01:56:37.208Z,13.23
2022-10-01T01:59:05.556Z,12.10
2022-10-01T02:02:23.547Z,12.20
2022-10-01T02:05:00.905Z,11.63
2022-10-01T02:07:57.227Z,12.07
2022-10-01T02:10:47.789Z,11.27
2022-10-01T02:13:42.718Z,11.47
2022-10-01T02:16:30.909Z,11.30
2022-10-01T02:19:17.236Z,10.70
2022-10-01T02:21:58.577Z,11.40
2022-10-01T02:24:34.538Z,11.77
2022-10-01T02:27:07.818Z,10.67
2022-10-01T02:29:37.873Z,10.77
2022-10-01T02:32:06.396Z,10.43
2022-10-01T02:34:34.344Z,9.83
2022-10-01T02:37:05.538Z,9.40
2022-10-01T02:39:34.634Z,8.93
2022-10-01T02:42:06.329Z,8.90
2022-10-01T02:44:38.561Z,9.00
2022-10-01T02:47:34.181Z,8.77
2022-10-01T02:50:02.764Z,9.23
2022-10-01T02:52:48.236Z,9.70
2022-10-01T02:55:24.089Z,9.83
2022-10-01T02:57:51.697Z,9.73
2022-10-01T03:00:23.543Z,9.53
2022-10-01T03:02:51.187Z,10.23
2022-10-01T03:05:20.540Z,9.87
2022-10-01T03:07:48.241Z,10.47
2022-10-01T03:10:16.252Z,10.67
2022-10-01T03:12:46.735Z,10.20
2022-10-01T03:15:16.623Z,11.00
2022-10-01T03:17:44.023Z,9.83
2022-10-01T03:20:12.404Z,10.17
2022-10-01T03:22:39.861Z,10.60
2022-10-01T03:25:07.625Z,10.27
2022-10-01T03:27:35.024Z,10.77
2022-10-01T03:30:02.493Z,10.20
2022-10-01T03:32:29.898Z,9.97
2022-10-01T03:34:57.290Z,9.83
2022-10-01T03:37:24.999Z,9.77
2022-10-01T03:39:52.404Z,9.73
2022-10-01T03:42:19.786Z,9.93
2022-10-01T03:44:47.950Z,10.03
2022-10-01T03:47:15.293Z,10.93
2022-10-01T03:49:42.805Z,10.53
2022-10-01T03:52:10.137Z,11.10
2022-10-01T03:54:39.410Z,10.63
2022-10-01T03:57:06.895Z,11.13
2022-10-01T03:59:34.280Z,11.47
2022-10-01T04:02:01.752Z,10.57
2022-10-01T04:04:29.231Z,10.10
2022-10-01T04:06:56.638Z,10.17
2022-10-01T04:09:24.105Z,10.70
2022-10-01T04:11:51.518Z,11.00
2022-10-01T04:14:18.901Z,10.40
2022-10-01T04:16:46.289Z,9.90
2022-10-01T04:19:13.593Z,9.73
2022-10-01T04:21:41.653Z,9.20
2022-10-01T04:24:09.008Z,9.90
2022-10-01T04:26:36.392Z,9.57
2022-10-01T04:29:03.769Z,9.57
2022-10-01T04:31:35.314Z,9.20
2022-10-01T04:34:03.945Z,9.70
2022-10-01T04:36:31.528Z,10.10
2022-10-01T04:39:02.185Z,8.93
2022-10-01T04:41:33.396Z,8.27
2022-10-01T04:44:01.327Z,8.93
2022-10-01T04:46:30.506Z,9.00
2022-10-01T04:48:58.550Z,9.03
2022-10-01T04:51:25.992Z,8.87
2022-10-01T04:53:53.504Z,8.77
2022-10-01T04:56:20.905Z,8.80
2022-10-01T04:58:49.153Z,9.20
2022-10-01T05:01:16.634Z,9.20
2022-10-01T05:03:44.043Z,9.57
2022-10-01T05:06:11.428Z,9.40
2022-10-01T05:08:39.275Z,9.27
2022-10-01T05:11:06.744Z,9.90
2022-10-01T05:13:34.167Z,9.13
2022-10-01T05:16:04.040Z,9.17
2022-10-01T05:18:33.437Z,9.03
2022-10-01T05:21:05.779Z,9.20
2022-10-01T05:23:33.962Z,9.13
2022-10-01T05:26:01.338Z,8.90
2022-10-01T05:28:28.808Z,9.37
2022-10-01T05:31:00.427Z,9.27
2022-10-01T05:33:28.760Z,8.77
2022-10-01T05:35:57.350Z,8.93
2022-10-01T05:38:25.098Z,9.10
2022-10-01T05:40:52.511Z,9.27
2022-10-01T05:43:19.960Z,9.80
2022-10-01T05:45:47.434Z,9.30
2022-10-01T05:48:14.845Z,10.10
2022-10-01T05:50:44.126Z,9.93
2022-10-01T05:53:12.065Z,9.40
2022-10-01T05:55:43.839Z,9.60
2022-10-01T05:58:15.760Z,9.10
2022-10-01T06:00:45.340Z,9.50
2022-10-01T06:03:16.396Z,10.40
2022-10-01T06:05:47.505Z,10.30
2022-10-01T06:08:21.857Z,9.50
2022-10-01T06:11:00.497Z,10.07
2022-10-01T06:13:43.190Z,10.90
2022-10-01T06:16:23.522Z,11.47
2022-10-01T06:19:02.867Z,10.60
2022-10-01T06:21:46.187Z,10.27
2022-10-01T06:24:19.103Z,9.50
2022-10-01T06:26:49.424Z,9.73
2022-10-01T06:29:21.527Z,9.77
2022-10-01T06:31:52.057Z,9.70
2022-10-01T06:34:21.026Z,9.87
2022-10-01T06:36:52.058Z,9.47
2022-10-01T06:39:33.661Z,9.30
2022-10-01T06:42:03.882Z,8.87
2022-10-01T06:47:18.672Z,15.27
2022-10-01T06:49:54.700Z,12.07
2022-10-01T06:52:47.524Z,12.77
2022-10-01T06:55:23.215Z,10.87
2022-10-01T06:58:20.647Z,8.83
2022-10-01T07:00:51.331Z,9.43
2022-10-01T07:03:24.042Z,9.50
2022-10-01T07:05:57.042Z,9.03
2022-10-01T07:08:30.504Z,8.77
2022-10-01T07:11:04.783Z,9.17
2022-10-01T07:13:35.822Z,8.90
2022-10-01T07:16:08.814Z,8.87
2022-10-01T07:18:41.596Z,7.93
2022-10-01T07:21:22.078Z,9.23
2022-10-01T07:23:54.529Z,8.83
2022-10-01T07:26:26.618Z,8.47
2022-10-01T07:28:57.714Z,7.63
2022-10-01T07:31:32.630Z,7.70
2022-10-01T07:34:06.803Z,8.03
2022-10-01T07:36:41.113Z,7.47
2022-10-01T07:39:16.697Z,7.67
2022-10-01T07:41:57.950Z,8.57
2022-10-01T07:44:31.250Z,8.33
2022-10-01T07:47:03.647Z,8.87
2022-10-01T07:50:00.163Z,9.00
2022-10-01T07:52:30.499Z,7.70
2022-10-01T07:55:10.330Z,7.70
2022-10-01T07:57:39.741Z,7.00
2022-10-01T08:00:09.676Z,6.50
2022-10-01T08:02:57.906Z,7.00
2022-10-01T08:05:35.902Z,6.50
2022-10-01T08:08:14.642Z,6.37
2022-10-01T08:10:55.713Z,5.90
2022-10-01T08:16:09.827Z,6.00
2022-10-01T08:18:45.965Z,5.83
2022-10-01T08:21:17.102Z,6.03
2022-10-01T08:23:47.319Z,5.50
2022-10-01T08:26:19.556Z,6.07
2022-10-01T08:28:54.059Z,6.20
2022-10-01T08:31:23.493Z,5.33
2022-10-01T08:36:38.774Z,5.60
2022-10-01T08:39:11.157Z,5.50
2022-10-01T08:41:50.518Z,5.60
2022-10-01T08:44:28.739Z,5.63
2022-10-01T08:47:11.125Z,5.40
2022-10-01T08:49:47.463Z,5.40
2022-10-01T08:52:43.184Z,5.37
2022-10-01T08:55:17.375Z,5.07
2022-10-01T08:58:04.463Z,5.13
2022-10-01T09:00:52.198Z,5.60
2022-10-01T09:03:23.169Z,5.30
2022-10-01T09:06:08.729Z,5.00
2022-10-01T09:09:11.366Z,6.37
2022-10-01T09:12:07.101Z,19.97
2022-10-01T09:15:00.048Z,13.97
2022-10-01T09:18:07.499Z,7.53
2022-10-01T09:20:57.379Z,6.00
2022-10-01T09:23:45.439Z,5.60
2022-10-01T09:26:17.028Z,5.33
2022-10-01T09:29:00.765Z,5.37
2022-10-01T09:31:42.777Z,5.07
2022-10-01T09:34:23.132Z,5.10
2022-10-01T09:37:17.683Z,6.77
2022-10-01T09:40:26.033Z,6.93
2022-10-01T09:42:56.898Z,9.27
2022-10-01T09:45:29.417Z,9.17
2022-10-01T09:48:18.591Z,6.03
2022-10-01T09:51:27.083Z,7.33
2022-10-01T09:54:37.701Z,6.60
2022-10-01T09:57:22.820Z,5.53
2022-10-01T10:00:13.325Z,4.73
2022-10-01T10:02:57.701Z,4.57
2022-10-01T10:05:52.306Z,6.13
2022-10-01T10:08:36.811Z,5.23
2022-10-01T10:11:40.430Z,4.30
2022-10-01T10:14:49.272Z,4.37
2022-10-01T10:20:14.793Z,4.43
2022-10-01T10:22:53.631Z,4.13
2022-10-01T10:25:25.987Z,4.17
2022-10-01T10:27:56.613Z,3.70
2022-10-01T10:30:28.900Z,3.83
2022-10-01T10:33:08.512Z,3.70
2022-10-01T10:35:40.540Z,3.70
2022-10-01T10:38:28.580Z,3.90
2022-10-01T10:41:00.946Z,3.47
2022-10-01T10:43:38.484Z,4.23
2022-10-01T10:46:14.666Z,4.20
2022-10-01T10:48:45.039Z,3.70
2022-10-01T10:51:26.760Z,3.80
2022-10-01T10:54:06.973Z,3.73
2022-10-01T10:56:41.705Z,3.57
2022-10-01T11:01:55.496Z,3.77
2022-10-01T11:04:45.540Z,3.83
2022-10-01T11:07:24.532Z,4.10
2022-10-01T11:10:15.068Z,3.40
2022-10-01T11:13:18.548Z,4.37
2022-10-01T11:16:15.772Z,4.83
2022-10-01T11:19:15.804Z,3.77
2022-10-01T11:22:10.886Z,3.80
2022-10-01T11:25:03.043Z,4.07
2022-10-01T11:34:15.216Z,3.73
2022-10-01T11:37:20.618Z,3.00
2022-10-01T11:39:53.012Z,2.90
2022-10-01T11:42:35.682Z,2.53
2022-10-01T11:45:31.676Z,2.70
2022-10-01T11:48:31.820Z,2.50
2022-10-01T11:51:19.651Z,2.50
2022-10-01T11:57:15.134Z,2.13
2022-10-01T11:59:55.251Z,2.20
2022-10-01T12:02:30.437Z,2.20
2022-10-01T12:05:10.517Z,2.30
2022-10-01T12:08:06.544Z,2.20
2022-10-01T12:11:26.091Z,2.10
2022-10-01T12:14:35.038Z,2.20
2022-10-01T12:17:54.360Z,2.00
2022-10-01T12:21:13.364Z,2.23
2022-10-01T12:24:18.604Z,2.30
2022-10-01T12:27:34.572Z,2.20
2022-10-01T12:30:22.878Z,2.27
2022-10-01T12:33:24.026Z,2.77
2022-10-01T12:36:25.982Z,2.60
2022-10-01T12:39:22.201Z,2.80
2022-10-01T12:42:13.445Z,2.60
2022-10-01T12:45:15.652Z,2.50
2022-10-01T12:48:12.740Z,2.33
2022-10-01T12:51:21.793Z,2.30
2022-10-01T12:54:20.872Z,2.60
2022-10-01T12:57:24.845Z,2.30
2022-10-01T13:00:20.179Z,2.10
2022-10-01T13:03:20.957Z,2.40
2022-10-01T13:06:57.753Z,3.70
2022-10-01T13:10:00.531Z,3.00
2022-10-01T13:12:45.389Z,2.53
2022-10-01T13:15:50.199Z,2.13
2022-10-01T13:18:47.917Z,2.57
2022-10-01T13:21:26.122Z,2.33
2022-10-01T13:24:32.674Z,2.60
2022-10-01T13:27:31.059Z,2.37
2022-10-01T13:30:18.859Z,2.23
2022-10-01T13:33:03.987Z,2.00
2022-10-01T13:35:39.782Z,2.10
2022-10-01T13:38:31.299Z,1.90
2022-10-01T13:41:08.337Z,2.07
2022-10-01T13:44:09.081Z,2.03
2022-10-01T13:47:07.813Z,2.30
2022-10-01T13:49:53.599Z,2.20
2022-10-01T13:52:34.520Z,2.20
2022-10-01T13:55:13.483Z,2.23
2022-10-01T13:57:44.108Z,2.70
2022-10-01T14:00:18.020Z,2.60
2022-10-01T14:03:39.975Z,2.37
2022-10-01T14:06:21.637Z,2.10
2022-10-01T14:09:32.183Z,2.20
2022-10-01T14:12:27.444Z,2.67
2022-10-01T14:15:22.688Z,3.00
2022-10-01T14:18:08.151Z,3.03
2022-10-01T14:21:06.609Z,2.90
2022-10-01T14:24:15.855Z,5.60
2022-10-01T14:27:22.057Z,4.57
2022-10-01T14:30:12.123Z,3.80
2022-10-01T14:33:11.507Z,4.00
2022-10-01T14:36:01.962Z,4.47
2022-10-01T14:38:36.814Z,4.00
2022-10-01T14:41:21.059Z,6.17
2022-10-01T14:43:50.607Z,5.80
2022-10-01T14:46:33.130Z,3.70
2022-10-01T14:49:04.877Z,3.43
2022-10-01T14:51:33.952Z,3.80
2022-10-01T14:54:12.146Z,2.90
2022-10-01T14:56:50.414Z,3.07
2022-10-01T14:59:36.247Z,3.30
2022-10-01T15:02:32.110Z,3.90
2022-10-01T15:05:03.774Z,3.80
2022-10-01T15:07:40.107Z,3.30
2022-10-01T15:10:19.632Z,3.43
2022-10-01T15:12:54.806Z,5.67
2022-10-01T15:15:44.304Z,4.60
2022-10-01T15:18:19.391Z,6.80
2022-10-01T15:21:03.844Z,6.57
2022-10-01T15:23:41.739Z,5.30
2022-10-01T15:26:21.718Z,5.77
2022-10-01T15:29:03.565Z,5.07
2022-10-01T15:31:34.833Z,4.97
2022-10-01T15:34:05.672Z,4.60
2022-10-01T15:36:45.661Z,4.23
2022-10-01T15:39:31.918Z,3.90
2022-10-01T15:42:06.832Z,4.50
2022-10-01T15:44:49.988Z,4.77
2022-10-01T15:47:33.098Z,4.07
2022-10-01T15:50:23.768Z,4.50
2022-10-01T15:53:02.277Z,3.87
2022-10-01T15:56:05.804Z,3.57
2022-10-01T15:58:39.477Z,4.07
2022-10-01T16:01:09.453Z,3.70
2022-10-01T16:03:48.471Z,3.97
2022-10-01T16:06:50.059Z,5.27
2022-10-01T16:10:00.299Z,5.10
2022-10-01T16:12:29.590Z,4.23
2022-10-01T16:15:11.193Z,4.73
2022-10-01T16:17:39.861Z,4.30
2022-10-01T16:20:16.074Z,4.50
2022-10-01T16:22:43.858Z,4.90
2022-10-01T16:25:32.038Z,5.30
2022-10-01T16:28:04.433Z,4.70
2022-10-01T16:30:34.085Z,5.10
2022-10-01T16:33:04.693Z,5.10
2022-10-01T16:35:36.094Z,4.67
2022-10-01T16:38:08.354Z,5.00
2022-10-01T16:40:42.254Z,5.57
2022-10-01T16:43:21.153Z,5.00
2022-10-01T16:45:48.549Z,4.70
2022-10-01T16:48:22.367Z,4.50
2022-10-01T16:50:53.731Z,4.00
2022-10-01T16:53:21.163Z,4.47
2022-10-01T16:59:56.984Z,4.50
2022-10-01T17:02:24.407Z,4.30
2022-10-01T17:04:54.368Z,4.40
2022-10-01T17:07:21.764Z,4.63
2022-10-01T17:09:49.218Z,4.10
2022-10-01T17:12:18.271Z,4.60
2022-10-01T17:15:13.341Z,3.87
2022-10-01T17:18:27.552Z,3.97
2022-10-01T17:21:46.606Z,4.67
2022-10-01T17:28:45.322Z,3.50
2022-10-01T17:31:18.105Z,3.20
2022-10-01T17:33:46.054Z,4.00
2022-10-01T17:36:14.916Z,5.30
2022-10-01T17:38:42.760Z,5.33
2022-10-01T17:41:10.127Z,4.10
2022-10-01T17:43:39.166Z,3.70
2022-10-01T17:46:06.661Z,4.10
2022-10-01T17:48:34.075Z,3.80
2022-10-01T17:51:06.829Z,3.23
2022-10-01T17:53:41.367Z,3.50
2022-10-01T17:56:15.886Z,3.40
2022-10-01T17:58:45.830Z,3.30
2022-10-01T18:01:19.628Z,3.63
2022-10-01T18:03:47.494Z,3.20
2022-10-01T18:06:16.195Z,3.17
2022-10-01T18:08:55.251Z,3.00
2022-10-01T18:11:25.807Z,2.70
2022-10-01T18:13:53.274Z,3.00
2022-10-01T18:16:21.653Z,3.03
2022-10-01T18:21:42.534Z,3.07
2022-10-01T18:24:10.460Z,2.93
2022-10-01T18:26:38.348Z,3.17
2022-10-01T18:29:06.039Z,2.67
2022-10-01T18:31:41.617Z,2.60
2022-10-01T18:34:26.238Z,2.83
2022-10-01T18:37:07.727Z,2.77
2022-10-01T18:39:45.144Z,3.00
2022-10-01T18:42:25.191Z,2.53
2022-10-01T18:44:57.762Z,3.00
2022-10-01T18:47:40.551Z,2.63
2022-10-01T18:50:28.159Z,3.00
2022-10-01T18:52:58.319Z,2.93
2022-10-01T18:55:55.954Z,2.60
2022-10-01T18:58:36.463Z,2.30
2022-10-01T19:01:26.783Z,2.40
2022-10-01T19:04:15.811Z,2.40
2022-10-01T19:07:04.600Z,2.30
2022-10-01T19:09:52.027Z,2.20
2022-10-01T19:12:30.842Z,2.30
2022-10-01T19:15:26.840Z,2.67
2022-10-01T19:18:05.199Z,2.80
2022-10-01T19:20:35.668Z,2.57
2022-10-01T19:23:15.754Z,2.50
2022-10-01T19:25:51.533Z,2.80
2022-10-01T19:28:35.739Z,2.80
2022-10-01T19:31:19.369Z,2.80
2022-10-01T19:34:09.817Z,2.50
2022-10-01T19:36:41.332Z,2.17
2022-10-01T19:39:16.256Z,2.30
2022-10-01T19:41:53.905Z,2.20
2022-10-01T19:44:26.113Z,2.60
2022-10-01T19:47:00.012Z,2.43
2022-10-01T19:49:37.010Z,2.33
2022-10-01T19:52:16.794Z,2.60
2022-10-01T19:54:49.154Z,2.40
2022-10-01T19:57:25.954Z,2.40
2022-10-01T20:00:10.281Z,2.60
2022-10-01T20:02:51.022Z,2.60
2022-10-01T20:05:41.505Z,2.63
2022-10-01T20:08:24.973Z,2.30
2022-10-01T20:11:01.227Z,2.40
2022-10-01T20:13:46.205Z,2.60
2022-10-01T20:16:36.448Z,2.33
2022-10-01T20:19:37.533Z,2.30
2022-10-01T20:22:47.999Z,2.33
2022-10-01T20:25:41.552Z,2.40
2022-10-01T20:28:36.212Z,2.50
2022-10-01T20:31:39.598Z,2.50
2022-10-01T20:34:19.055Z,2.27
2022-10-01T20:36:58.543Z,2.10
2022-10-01T20:39:51.918Z,2.10
2022-10-01T20:42:30.615Z,2.00
2022-10-01T20:44:58.561Z,2.10
2022-10-01T20:47:36.603Z,2.20
2022-10-01T20:50:12.193Z,2.20
2022-10-01T20:52:51.693Z,2.50
2022-10-01T20:55:29.185Z,2.13
2022-10-01T20:58:02.600Z,1.73
2022-10-01T21:00:31.203Z,1.90
2022-10-01T21:03:38.540Z,1.87
2022-10-01T21:06:21.205Z,1.83
2022-10-01T21:08:58.239Z,1.73
2022-10-01T21:11:36.014Z,1.77
2022-10-01T21:14:21.593Z,1.70
2022-10-01T21:17:05.901Z,1.87
2022-10-01T21:19:45.200Z,1.90
2022-10-01T21:22:43.164Z,1.67
2022-10-01T21:26:01.935Z,1.93
2022-10-01T21:28:49.779Z,2.03
2022-10-01T21:31:44.608Z,1.90
2022-10-01T21:34:26.889Z,1.90
2022-10-01T21:37:09.031Z,1.70
2022-10-01T21:40:06.470Z,1.67
2022-10-01T21:42:56.607Z,2.07
2022-10-01T21:45:28.706Z,1.90
2022-10-01T21:48:20.128Z,1.90
2022-10-01T21:50:55.439Z,1.80
2022-10-01T21:53:53.055Z,1.83
2022-10-01T21:56:52.486Z,2.00
2022-10-01T21:59:51.519Z,1.80
2022-10-01T22:02:37.324Z,1.80
2022-10-01T22:05:23.878Z,1.70
2022-10-01T22:08:18.658Z,1.77
2022-10-01T22:10:53.125Z,1.63
2022-10-01T22:13:23.367Z,1.60
2022-10-01T22:15:54.996Z,1.60
2022-10-01T22:18:35.548Z,1.60
2022-10-01T22:21:08.400Z,1.50
2022-10-01T22:23:41.076Z,1.50
2022-10-01T22:26:17.354Z,1.50
2022-10-01T22:28:50.275Z,1.57
2022-10-01T22:31:24.855Z,1.40
2022-10-01T22:34:09.646Z,1.67
2022-10-01T22:37:00.593Z,1.47
2022-10-01T22:39:34.382Z,1.40
2022-10-01T22:42:13.265Z,1.50
2022-10-01T22:44:41.086Z,1.50
2022-10-01T22:47:36.773Z,1.70
2022-10-01T22:50:31.600Z,1.47
2022-10-01T22:53:08.683Z,1.60
2022-10-01T22:55:57.668Z,1.40
2022-10-01T22:58:45.682Z,1.50
2022-10-01T23:01:44.278Z,1.43
2022-10-01T23:04:31.456Z,1.50
2022-10-01T23:07:27.275Z,1.63
2022-10-01T23:10:06.290Z,1.40
2022-10-01T23:12:53.827Z,1.20
2022-10-01T23:15:42.287Z,1.70
2022-10-01T23:18:20.651Z,1.40
2022-10-01T23:21:08.369Z,1.50
2022-10-01T23:23:35.793Z,1.30
2022-10-01T23:26:13.588Z,1.50
2022-10-01T23:28:49.988Z,1.50
2022-10-01T23:31:31.434Z,1.70
2022-10-01T23:34:24.087Z,1.60
2022-10-01T23:37:16.019Z,1.40
2022-10-01T23:39:53.043Z,1.30
2022-10-01T23:42:42.435Z,1.33
2022-10-01T23:45:15.840Z,1.13
2022-10-01T23:48:08.677Z,1.20
2022-10-01T23:50:50.668Z,1.40
2022-10-01T23:53:25.134Z,1.70
2022-10-01T23:56:22.685Z,1.30
2022-10-01T23:59:21.123Z,1.30
